createdAt,value
2023-05-07T00:00:08.800Z,70.18
2023-05-07T00:02:36.572Z,61.78
2023-05-07T00:05:04.562Z,61.85
2023-05-07T00:07:32.247Z,73.40
2023-05-07T00:09:59.377Z,68.93
2023-05-07T00:12:27.060Z,63.28
2023-05-07T00:14:54.485Z,67.97
2023-05-07T00:17:21.934Z,73.32
2023-05-07T00:19:49.033Z,73.38
2023-05-07T00:22:16.608Z,57.17
2023-05-07T00:24:43.805Z,53.63
2023-05-07T00:27:10.930Z,60.17
2023-05-07T00:29:38.128Z,59.40
2023-05-07T00:32:06.227Z,64.10
2023-05-07T00:34:33.543Z,51.97
2023-05-07T00:37:00.743Z,57.78
2023-05-07T00:39:28.122Z,49.28
2023-05-07T00:41:55.369Z,49.72
2023-05-07T00:44:22.825Z,53.17
2023-05-07T00:46:50.657Z,60.20
2023-05-07T00:49:18.198Z,57.35
2023-05-07T00:51:45.989Z,49.95
2023-05-07T00:54:13.323Z,56.95
2023-05-07T00:56:40.809Z,48.78
2023-05-07T00:59:08.226Z,54.40
2023-05-07T01:01:35.648Z,58.28
2023-05-07T01:04:03.724Z,55.53
2023-05-07T01:06:31.597Z,49.80
2023-05-07T01:08:59.144Z,45.28
2023-05-07T01:11:26.751Z,51.67
2023-05-07T01:13:53.970Z,52.08
2023-05-07T01:16:22.496Z,46.67
2023-05-07T01:18:49.772Z,49.97
2023-05-07T01:21:17.826Z,49.58
2023-05-07T01:23:45.994Z,44.72
2023-05-07T01:26:13.409Z,42.42
2023-05-07T01:28:41.241Z,48.15
2023-05-07T01:31:09.027Z,40.05
2023-05-07T01:33:36.167Z,34.28
2023-05-07T01:36:07.455Z,34.25
2023-05-07T01:38:34.719Z,35.28
2023-05-07T01:41:02.069Z,36.53
2023-05-07T01:43:30.623Z,30.02
2023-05-07T01:45:58.920Z,48.80
2023-05-07T01:48:26.135Z,41.13
2023-05-07T01:50:53.818Z,33.88
2023-05-07T01:53:20.818Z,39.33
2023-05-07T01:55:48.350Z,39.80
2023-05-07T01:58:17.193Z,25.05
2023-05-07T02:00:44.402Z,38.63
2023-05-07T02:03:11.651Z,29.15
2023-05-07T02:05:46.174Z,35.13
2023-05-07T02:08:29.840Z,43.35
2023-05-07T02:10:58.084Z,39.53
2023-05-07T02:13:30.059Z,35.25
2023-05-07T02:15:58.568Z,47.63
2023-05-07T02:18:27.510Z,44.25
2023-05-07T02:20:55.376Z,33.90
2023-05-07T02:23:23.011Z,44.17
2023-05-07T02:25:50.183Z,33.50
2023-05-07T02:28:18.661Z,45.80
2023-05-07T02:31:05.921Z,40.42
2023-05-07T02:33:35.624Z,45.80
2023-05-07T02:36:10.782Z,37.78
2023-05-07T02:39:00.087Z,41.67
2023-05-07T02:41:29.161Z,38.92
2023-05-07T02:43:56.781Z,37.00
2023-05-07T02:46:24.006Z,36.33
2023-05-07T02:48:59.869Z,35.75
2023-05-07T02:51:28.128Z,35.90
2023-05-07T02:53:57.982Z,28.10
2023-05-07T02:56:27.631Z,31.92
2023-05-07T02:58:55.215Z,40.45
2023-05-07T03:01:26.171Z,31.13
2023-05-07T03:04:05.289Z,36.63
2023-05-07T03:06:32.799Z,35.03
2023-05-07T03:08:59.955Z,33.55
2023-05-07T03:11:27.298Z,38.40
2023-05-07T03:13:54.374Z,34.97
2023-05-07T03:16:22.821Z,30.55
2023-05-07T03:18:50.289Z,35.63
2023-05-07T03:21:17.491Z,27.73
2023-05-07T03:23:44.988Z,43.45
2023-05-07T03:26:12.010Z,40.53
2023-05-07T03:28:39.428Z,38.08
2023-05-07T03:31:11.283Z,36.15
2023-05-07T03:33:40.539Z,33.95
2023-05-07T03:36:08.156Z,27.38
2023-05-07T03:38:35.587Z,45.10
2023-05-07T03:41:03.330Z,31.15
2023-05-07T03:43:30.820Z,35.97
2023-05-07T03:46:05.648Z,33.40
2023-05-07T03:48:32.817Z,32.42
2023-05-07T03:51:00.279Z,26.73
2023-05-07T03:53:32.046Z,31.87
2023-05-07T03:55:59.279Z,24.35
2023-05-07T03:58:26.589Z,28.00
2023-05-07T04:00:56.945Z,33.00
2023-05-07T04:03:28.250Z,27.30
2023-05-07T04:05:58.951Z,26.50
2023-05-07T04:08:26.681Z,26.83
2023-05-07T04:10:59.308Z,36.58
2023-05-07T04:13:31.110Z,28.92
2023-05-07T04:16:00.109Z,22.30
2023-05-07T04:18:28.495Z,22.85
2023-05-07T04:20:56.053Z,22.13
2023-05-07T04:23:23.276Z,41.05
2023-05-07T04:25:51.513Z,25.95
2023-05-07T04:28:39.173Z,23.70
2023-05-07T04:31:07.865Z,21.48
2023-05-07T04:33:37.228Z,21.50
2023-05-07T04:36:06.440Z,19.35
2023-05-07T04:38:39.355Z,18.58
2023-05-07T04:41:07.336Z,18.73
2023-05-07T04:43:38.787Z,22.50
2023-05-07T04:46:06.205Z,22.60
2023-05-07T04:48:33.654Z,21.38
2023-05-07T04:51:02.421Z,17.58
2023-05-07T04:53:29.917Z,18.48
2023-05-07T04:55:58.664Z,19.90
2023-05-07T04:58:32.988Z,17.58
2023-05-07T05:01:01.456Z,18.80
2023-05-07T05:03:29.473Z,12.98
2023-05-07T05:06:00.756Z,17.10
2023-05-07T05:08:32.381Z,19.40
2023-05-07T05:11:03.025Z,19.42
2023-05-07T05:13:32.545Z,15.55
2023-05-07T05:16:03.298Z,15.43
2023-05-07T05:18:33.807Z,11.65
2023-05-07T05:21:00.962Z,11.98
2023-05-07T05:23:29.207Z,11.90
2023-05-07T05:25:58.773Z,10.63
2023-05-07T05:28:29.079Z,12.10
2023-05-07T05:30:57.278Z,10.30
2023-05-07T05:33:26.567Z,11.57
2023-05-07T05:35:55.310Z,11.05
2023-05-07T05:38:22.756Z,9.95
2023-05-07T05:40:50.695Z,11.00
2023-05-07T05:43:18.942Z,11.35
2023-05-07T05:45:46.041Z,8.48
2023-05-07T05:48:13.777Z,17.05
2023-05-07T05:50:43.018Z,9.43
2023-05-07T05:53:10.584Z,11.23
2023-05-07T05:55:38.468Z,10.13
2023-05-07T05:58:06.191Z,6.97
2023-05-07T06:00:37.132Z,8.88
2023-05-07T06:03:06.918Z,8.55
2023-05-07T06:05:35.095Z,8.15
2023-05-07T06:08:02.648Z,10.52
2023-05-07T06:10:33.451Z,7.75
2023-05-07T06:13:01.517Z,8.70
2023-05-07T06:15:31.229Z,7.65
2023-05-07T06:18:04.273Z,11.07
2023-05-07T06:20:31.691Z,16.02
2023-05-07T06:23:01.100Z,10.32
2023-05-07T06:25:29.144Z,9.73
2023-05-07T06:27:56.485Z,9.50
2023-05-07T06:30:25.842Z,11.18
2023-05-07T06:32:53.098Z,13.82
2023-05-07T06:35:20.970Z,12.75
2023-05-07T06:37:48.424Z,16.88
2023-05-07T06:40:20.795Z,12.85
2023-05-07T06:42:49.291Z,14.73
2023-05-07T06:45:29.652Z,18.77
2023-05-07T06:47:58.202Z,11.57
2023-05-07T06:50:26.611Z,18.90
2023-05-07T06:52:57.798Z,9.77
2023-05-07T06:55:26.754Z,17.17
2023-05-07T06:57:55.370Z,12.98
2023-05-07T07:00:24.738Z,11.27
2023-05-07T07:02:56.062Z,17.20
2023-05-07T07:05:26.387Z,11.95
2023-05-07T07:07:54.098Z,14.90
2023-05-07T07:10:25.151Z,13.77
2023-05-07T07:12:54.819Z,18.08
2023-05-07T07:15:23.018Z,16.65
2023-05-07T07:17:51.463Z,16.13
2023-05-07T07:20:18.583Z,15.93
2023-05-07T07:22:47.583Z,17.50
2023-05-07T07:25:16.877Z,20.90
2023-05-07T07:27:44.455Z,15.88
2023-05-07T07:30:13.425Z,14.00
2023-05-07T07:32:43.824Z,17.13
2023-05-07T07:35:11.126Z,18.65
2023-05-07T07:37:39.873Z,19.33
2023-05-07T07:40:07.936Z,14.18
2023-05-07T07:42:36.256Z,20.92
2023-05-07T07:45:04.180Z,23.30
2023-05-07T07:47:34.869Z,17.52
2023-05-07T07:50:03.157Z,22.45
2023-05-07T07:52:30.418Z,17.42
2023-05-07T07:54:58.024Z,18.33
2023-05-07T07:57:26.066Z,15.98
2023-05-07T07:59:53.836Z,15.80
2023-05-07T08:02:21.858Z,20.05
2023-05-07T08:04:50.602Z,14.07
2023-05-07T08:07:21.523Z,16.48
2023-05-07T08:09:49.504Z,16.27
2023-05-07T08:12:20.783Z,16.23
2023-05-07T08:14:49.332Z,18.38
2023-05-07T08:17:17.233Z,12.82
2023-05-07T08:19:45.725Z,18.55
2023-05-07T08:22:14.835Z,16.17
2023-05-07T08:24:42.422Z,19.52
2023-05-07T08:27:10.351Z,15.98
2023-05-07T08:29:38.968Z,15.82
2023-05-07T08:32:06.837Z,20.48
2023-05-07T08:34:34.317Z,19.50
2023-05-07T08:37:04.938Z,15.45
2023-05-07T08:39:33.142Z,17.88
2023-05-07T08:42:02.872Z,19.75
2023-05-07T08:44:31.699Z,13.73
2023-05-07T08:46:59.286Z,16.40
2023-05-07T08:49:28.406Z,16.48
2023-05-07T08:51:56.851Z,16.90
2023-05-07T08:54:25.320Z,20.40
2023-05-07T08:56:52.580Z,19.77
2023-05-07T08:59:20.193Z,20.65
2023-05-07T09:01:48.173Z,19.52
2023-05-07T09:04:16.312Z,20.08
2023-05-07T09:06:44.767Z,18.58
2023-05-07T09:09:19.472Z,19.50
2023-05-07T09:11:46.927Z,13.43
2023-05-07T09:14:16.978Z,17.83
2023-05-07T09:16:47.148Z,18.15
2023-05-07T09:19:14.969Z,17.65
2023-05-07T09:21:46.067Z,17.00
2023-05-07T09:24:16.363Z,16.52
2023-05-07T09:26:44.173Z,15.90
2023-05-07T09:29:12.477Z,17.25
2023-05-07T09:31:41.060Z,20.63
2023-05-07T09:34:11.940Z,15.68
2023-05-07T09:36:42.282Z,18.55
2023-05-07T09:39:09.564Z,21.90
2023-05-07T09:41:44.993Z,14.82
2023-05-07T09:44:19.510Z,14.68
2023-05-07T09:46:54.403Z,21.00
2023-05-07T09:49:27.902Z,26.90
2023-05-07T09:52:02.026Z,14.48
2023-05-07T09:54:32.218Z,16.95
2023-05-07T09:57:03.258Z,20.55
2023-05-07T09:59:32.397Z,30.73
2023-05-07T10:02:04.173Z,19.83
2023-05-07T10:04:35.390Z,16.75
2023-05-07T10:07:03.379Z,13.30
2023-05-07T10:09:31.386Z,12.93
2023-05-07T10:11:59.317Z,16.48
2023-05-07T10:14:26.505Z,16.15
2023-05-07T10:16:53.767Z,17.10
2023-05-07T10:19:21.740Z,17.40
2023-05-07T10:21:57.800Z,20.55
2023-05-07T10:24:28.392Z,14.68
2023-05-07T10:26:56.580Z,13.43
2023-05-07T10:29:32.272Z,13.48
2023-05-07T10:32:22.885Z,16.25
2023-05-07T10:34:52.156Z,13.77
2023-05-07T10:37:19.618Z,21.25
2023-05-07T10:39:46.868Z,15.30
2023-05-07T10:42:15.012Z,12.30
2023-05-07T10:44:48.646Z,13.80
2023-05-07T10:47:23.294Z,16.55
2023-05-07T10:50:06.408Z,17.25
2023-05-07T10:52:38.990Z,18.05
2023-05-07T10:55:20.710Z,15.35
2023-05-07T10:57:56.524Z,17.75
2023-05-07T11:03:03.636Z,16.38
2023-05-07T11:05:38.839Z,15.93
2023-05-07T11:08:16.329Z,17.35
2023-05-07T11:11:04.777Z,12.20
2023-05-07T11:13:52.605Z,15.70
2023-05-07T11:16:43.122Z,16.90
2023-05-07T11:19:53.049Z,19.33
2023-05-07T11:22:40.559Z,14.90
2023-05-07T11:25:20.489Z,16.13
2023-05-07T11:27:53.665Z,16.70
2023-05-07T11:30:20.922Z,17.52
2023-05-07T11:32:49.329Z,12.57
2023-05-07T11:35:18.093Z,18.80
2023-05-07T11:37:48.071Z,17.30
2023-05-07T11:40:16.429Z,16.40
2023-05-07T11:42:44.517Z,18.42
2023-05-07T11:45:12.298Z,23.83
2023-05-07T11:47:40.001Z,20.73
2023-05-07T11:50:11.707Z,22.70
2023-05-07T11:52:40.004Z,15.98
2023-05-07T11:55:09.186Z,19.60
2023-05-07T11:57:36.794Z,25.27
2023-05-07T12:00:05.747Z,15.38
2023-05-07T12:02:44.649Z,17.50
2023-05-07T12:05:12.139Z,18.70
2023-05-07T12:07:39.702Z,26.45
2023-05-07T12:10:07.522Z,16.98
2023-05-07T12:12:42.514Z,14.13
2023-05-07T12:15:11.341Z,17.35
2023-05-07T12:17:38.717Z,14.38
2023-05-07T12:20:06.830Z,13.93
2023-05-07T12:22:34.249Z,13.13
2023-05-07T12:25:01.385Z,16.80
2023-05-07T12:27:29.101Z,17.50
2023-05-07T12:29:58.349Z,17.35
2023-05-07T12:32:25.957Z,17.58
2023-05-07T12:34:53.212Z,16.88
2023-05-07T12:37:27.219Z,17.77
2023-05-07T12:42:41.934Z,17.20
2023-05-07T12:45:14.188Z,17.80
2023-05-07T12:47:46.210Z,16.75
2023-05-07T12:50:15.015Z,21.00
2023-05-07T12:52:42.521Z,21.30
2023-05-07T12:55:10.721Z,18.83
2023-05-07T12:57:43.328Z,18.15
2023-05-07T13:00:11.414Z,13.82
2023-05-07T13:02:39.111Z,20.33
2023-05-07T13:05:07.036Z,16.83
2023-05-07T13:07:34.767Z,16.33
2023-05-07T13:10:01.981Z,14.30
2023-05-07T13:12:29.404Z,15.63
2023-05-07T13:14:56.832Z,15.88
2023-05-07T13:17:24.065Z,14.98
2023-05-07T13:19:51.648Z,20.88
2023-05-07T13:22:19.130Z,15.05
2023-05-07T13:24:46.504Z,14.45
2023-05-07T13:27:13.675Z,16.43
2023-05-07T13:29:40.742Z,14.88
2023-05-07T13:32:08.612Z,15.48
2023-05-07T13:34:36.144Z,11.38
2023-05-07T13:37:03.229Z,18.83
2023-05-07T13:39:30.981Z,12.43
2023-05-07T13:41:58.448Z,16.27
2023-05-07T13:44:27.046Z,15.68
2023-05-07T13:46:54.239Z,13.50
2023-05-07T13:49:21.352Z,14.18
2023-05-07T13:51:48.730Z,14.15
2023-05-07T13:54:16.588Z,15.05
2023-05-07T13:56:43.633Z,13.98
2023-05-07T13:59:11.001Z,14.43
2023-05-07T14:01:38.195Z,14.65
2023-05-07T14:04:05.704Z,15.93
2023-05-07T14:06:33.141Z,12.32
2023-05-07T14:09:00.859Z,15.60
2023-05-07T14:11:28.557Z,15.93
2023-05-07T14:13:57.519Z,15.57
2023-05-07T14:16:24.669Z,11.02
2023-05-07T14:18:52.239Z,15.82
2023-05-07T14:21:19.578Z,15.10
2023-05-07T14:23:47.435Z,14.25
2023-05-07T14:26:14.646Z,10.98
2023-05-07T14:28:47.074Z,17.25
2023-05-07T14:31:14.564Z,13.55
2023-05-07T14:33:42.319Z,11.65
2023-05-07T14:36:09.958Z,9.75
2023-05-07T14:38:37.376Z,12.73
2023-05-07T14:41:05.057Z,17.00
2023-05-07T14:43:32.542Z,8.40
2023-05-07T14:45:59.826Z,13.40
2023-05-07T14:48:27.290Z,13.52
2023-05-07T14:50:54.446Z,13.27
2023-05-07T14:53:22.525Z,17.38
2023-05-07T14:55:49.932Z,13.13
2023-05-07T14:58:17.170Z,11.63
2023-05-07T15:00:44.590Z,13.38
2023-05-07T15:03:12.357Z,11.30
2023-05-07T15:05:42.885Z,17.90
2023-05-07T15:08:10.583Z,16.23
2023-05-07T15:10:41.907Z,13.77
2023-05-07T15:13:13.338Z,11.73
2023-05-07T15:15:43.386Z,13.13
2023-05-07T15:18:10.787Z,21.40
2023-05-07T15:20:38.333Z,14.20
2023-05-07T15:23:06.886Z,13.10
2023-05-07T15:25:34.549Z,10.55
2023-05-07T15:28:02.186Z,18.02
2023-05-07T15:30:29.698Z,17.20
2023-05-07T15:32:57.406Z,13.95
2023-05-07T15:35:26.686Z,10.02
2023-05-07T15:37:54.655Z,13.10
2023-05-07T15:40:22.012Z,9.57
2023-05-07T15:42:49.614Z,8.75
2023-05-07T15:45:17.173Z,11.77
2023-05-07T15:47:44.791Z,22.25
2023-05-07T15:50:12.491Z,29.27
2023-05-07T15:52:41.549Z,36.15
2023-05-07T15:55:09.911Z,24.60
2023-05-07T15:57:37.681Z,22.95
2023-05-07T16:00:08.916Z,26.25
2023-05-07T16:02:42.324Z,22.95
2023-05-07T16:05:11.407Z,26.17
2023-05-07T16:07:39.860Z,21.88
2023-05-07T16:10:09.607Z,17.30
2023-05-07T16:12:37.433Z,17.23
2023-05-07T16:15:05.711Z,17.92
2023-05-07T16:17:34.102Z,11.20
2023-05-07T16:20:02.197Z,12.32
2023-05-07T16:22:31.428Z,15.48
2023-05-07T16:24:58.814Z,16.48
2023-05-07T16:27:26.209Z,11.48
2023-05-07T16:29:53.872Z,15.15
2023-05-07T16:32:21.259Z,21.15
2023-05-07T16:34:48.688Z,25.73
2023-05-07T16:37:15.930Z,34.38
2023-05-07T16:39:43.004Z,38.17
2023-05-07T16:42:10.225Z,31.05
2023-05-07T16:44:37.265Z,33.90
2023-05-07T16:47:04.858Z,38.67
2023-05-07T16:49:31.940Z,30.63
2023-05-07T16:51:59.066Z,36.08
2023-05-07T16:54:26.150Z,36.25
2023-05-07T16:56:53.669Z,37.38
2023-05-07T16:59:20.823Z,39.45
2023-05-07T17:01:48.227Z,41.47
2023-05-07T17:04:15.372Z,31.83
2023-05-07T17:06:42.815Z,29.95
2023-05-07T17:09:10.281Z,25.48
2023-05-07T17:11:37.581Z,18.25
2023-05-07T17:14:05.788Z,12.25
2023-05-07T17:16:33.682Z,18.17
2023-05-07T17:19:00.964Z,20.73
2023-05-07T17:21:28.942Z,13.43
2023-05-07T17:23:56.121Z,13.50
2023-05-07T17:26:23.532Z,16.65
2023-05-07T17:28:50.767Z,19.92
2023-05-07T17:31:18.711Z,14.90
2023-05-07T17:33:46.237Z,13.73
2023-05-07T17:36:14.217Z,8.93
2023-05-07T17:38:41.423Z,8.80
2023-05-07T17:41:08.564Z,12.32
2023-05-07T17:43:35.804Z,9.63
2023-05-07T17:46:03.252Z,14.18
2023-05-07T17:48:31.126Z,15.30
2023-05-07T17:51:04.655Z,15.38
2023-05-07T17:53:32.223Z,12.30
2023-05-07T17:55:59.521Z,14.48
2023-05-07T17:58:27.084Z,11.23
2023-05-07T18:00:55.180Z,15.50
2023-05-07T18:03:24.229Z,24.30
2023-05-07T18:05:51.743Z,33.30
2023-05-07T18:08:18.709Z,26.38
2023-05-07T18:10:46.026Z,26.75
2023-05-07T18:13:13.424Z,29.85
2023-05-07T18:15:40.728Z,29.40
2023-05-07T18:18:08.107Z,31.65
2023-05-07T18:20:35.561Z,29.48
2023-05-07T18:23:04.032Z,41.88
2023-05-07T18:25:31.545Z,34.40
2023-05-07T18:27:58.690Z,36.45
2023-05-07T18:30:26.038Z,38.03
2023-05-07T18:32:53.393Z,52.53
2023-05-07T18:35:20.620Z,50.55
2023-05-07T18:37:47.672Z,57.00
2023-05-07T18:40:15.095Z,53.42
2023-05-07T18:42:42.703Z,65.97
2023-05-07T18:45:10.335Z,54.00
2023-05-07T18:47:37.415Z,56.60
2023-05-07T18:50:06.264Z,64.45
2023-05-07T18:52:35.902Z,56.38
2023-05-07T18:55:03.752Z,63.75
2023-05-07T18:57:31.157Z,50.50
2023-05-07T18:59:58.558Z,53.95
2023-05-07T19:02:25.920Z,30.65
2023-05-07T19:04:53.244Z,31.27
2023-05-07T19:07:20.786Z,38.78
2023-05-07T19:10:00.985Z,51.45
2023-05-07T19:12:31.135Z,49.15
2023-05-07T19:14:58.359Z,46.78
2023-05-07T19:17:25.532Z,48.70
2023-05-07T19:19:52.913Z,45.58
2023-05-07T19:22:20.260Z,52.40
2023-05-07T19:24:47.639Z,60.22
2023-05-07T19:27:15.110Z,56.83
2023-05-07T19:29:42.958Z,65.10
2023-05-07T19:32:10.102Z,60.28
2023-05-07T19:34:37.651Z,65.68
2023-05-07T19:37:05.584Z,76.45
2023-05-07T19:39:33.327Z,124.28
2023-05-07T19:42:00.317Z,99.30
2023-05-07T19:44:27.758Z,88.43
2023-05-07T19:46:55.155Z,108.43
2023-05-07T19:49:22.538Z,83.10
2023-05-07T19:51:49.761Z,95.30
2023-05-07T19:54:17.207Z,102.07
2023-05-07T19:56:44.560Z,96.65
2023-05-07T19:59:11.698Z,134.65
2023-05-07T20:01:38.904Z,163.65
2023-05-07T20:04:06.319Z,161.13
2023-05-07T20:06:33.700Z,194.45
2023-05-07T20:09:01.250Z,214.48
2023-05-07T20:11:28.490Z,234.35
2023-05-07T20:13:55.660Z,226.27
2023-05-07T20:16:23.007Z,218.25
2023-05-07T20:18:50.321Z,208.82
2023-05-07T20:21:17.686Z,183.55
2023-05-07T20:23:44.827Z,123.95
2023-05-07T20:26:12.469Z,147.30
2023-05-07T20:28:39.691Z,129.90
2023-05-07T20:31:07.052Z,130.85
2023-05-07T20:33:34.538Z,192.85
2023-05-07T20:36:01.945Z,159.93
2023-05-07T20:38:33.515Z,124.00
2023-05-07T20:41:11.399Z,143.60
2023-05-07T20:43:39.014Z,143.57
2023-05-07T20:46:07.592Z,139.98
2023-05-07T20:48:34.985Z,130.75
2023-05-07T20:51:02.318Z,119.82
2023-05-07T20:53:30.985Z,123.78
2023-05-07T20:55:59.816Z,120.35
2023-05-07T20:58:29.834Z,161.73
2023-05-07T21:00:57.049Z,231.48
2023-05-07T21:03:24.441Z,133.45
2023-05-07T21:05:55.953Z,173.85
2023-05-07T21:08:23.539Z,205.18
2023-05-07T21:10:51.667Z,204.05
2023-05-07T21:13:18.921Z,210.80
2023-05-07T21:15:46.318Z,211.18
2023-05-07T21:18:13.696Z,175.48
2023-05-07T21:20:41.165Z,188.30
2023-05-07T21:23:08.557Z,190.13
2023-05-07T21:25:39.308Z,172.35
2023-05-07T21:28:08.460Z,172.73
2023-05-07T21:30:36.611Z,180.65
2023-05-07T21:33:06.302Z,109.30
2023-05-07T21:35:36.537Z,120.03
2023-05-07T21:38:03.762Z,107.10
2023-05-07T21:40:31.484Z,103.78
2023-05-07T21:43:00.078Z,108.82
2023-05-07T21:45:27.293Z,105.57
2023-05-07T21:47:54.585Z,107.25
2023-05-07T21:50:22.293Z,134.25
2023-05-07T21:52:49.724Z,154.88
2023-05-07T21:55:20.210Z,157.60
2023-05-07T21:58:01.244Z,134.32
2023-05-07T22:00:32.771Z,136.00
2023-05-07T22:03:00.287Z,147.65
2023-05-07T22:05:27.700Z,162.02
2023-05-07T22:07:54.744Z,161.48
2023-05-07T22:10:22.945Z,149.40
2023-05-07T22:12:50.492Z,152.52
2023-05-07T22:15:18.418Z,100.47
2023-05-07T22:17:45.804Z,99.15
2023-05-07T22:20:13.403Z,78.47
2023-05-07T22:22:53.183Z,87.85
2023-05-07T22:25:24.023Z,58.95
2023-05-07T22:27:51.544Z,41.80
2023-05-07T22:30:19.092Z,45.08
2023-05-07T22:32:46.195Z,46.00
2023-05-07T22:35:13.402Z,46.20
2023-05-07T22:37:40.675Z,39.70
2023-05-07T22:40:08.412Z,29.13
2023-05-07T22:42:35.624Z,33.42
2023-05-07T22:45:03.259Z,35.00
2023-05-07T22:47:33.566Z,44.90
2023-05-07T22:50:01.458Z,58.97
2023-05-07T22:52:29.366Z,111.93
2023-05-07T22:54:56.324Z,133.45
2023-05-07T22:57:23.464Z,130.25
2023-05-07T22:59:54.380Z,97.03
2023-05-07T23:02:22.068Z,106.47
2023-05-07T23:04:50.057Z,85.13
2023-05-07T23:07:17.038Z,95.07
2023-05-07T23:09:44.437Z,95.40
2023-05-07T23:12:12.033Z,106.93
2023-05-07T23:14:39.454Z,84.90
2023-05-07T23:17:06.683Z,71.65
2023-05-07T23:19:34.298Z,67.82
2023-05-07T23:22:01.759Z,65.22
2023-05-07T23:24:28.744Z,68.28
2023-05-07T23:26:56.081Z,52.40
2023-05-07T23:29:23.614Z,63.15
2023-05-07T23:31:51.227Z,62.47
2023-05-07T23:34:23.942Z,58.15
2023-05-07T23:36:51.642Z,69.82
2023-05-07T23:39:19.136Z,69.55
2023-05-07T23:41:46.511Z,81.63
2023-05-07T23:44:16.119Z,88.90
2023-05-07T23:46:44.245Z,73.68
2023-05-07T23:49:11.475Z,72.50
2023-05-07T23:51:38.622Z,77.28
2023-05-07T23:54:06.748Z,76.50
2023-05-07T23:56:34.163Z,64.75
2023-05-07T23:59:01.393Z,68.10
